createdAt,value
2018-11-23T00:00:02.863Z,95754.41
2018-11-23T00:02:28.872Z,95750.28
2018-11-23T00:04:54.847Z,95750.95
2018-11-23T00:07:20.865Z,95752.95
2018-11-23T00:09:46.870Z,95754.09
2018-11-23T00:12:12.911Z,95757.63
2018-11-23T00:14:38.893Z,95761.75
2018-11-23T00:17:04.910Z,95761.19
2018-11-23T00:19:30.902Z,95761.75
2018-11-23T00:21:56.889Z,95759.19
2018-11-23T00:24:22.876Z,95764.13
2018-11-23T00:26:48.879Z,95768.80
2018-11-23T00:29:14.862Z,95765.39
2018-11-23T00:31:40.848Z,95767.58
2018-11-23T00:34:06.845Z,95769.30
2018-11-23T00:36:32.832Z,95776.38
2018-11-23T00:38:58.815Z,95773.89
2018-11-23T00:41:24.810Z,95774.45
2018-11-23T00:43:50.859Z,95782.28
2018-11-23T00:46:16.884Z,95779.13
2018-11-23T00:48:42.862Z,95785.29
2018-11-23T00:51:08.836Z,95789.01
2018-11-23T00:53:34.850Z,95784.88
2018-11-23T00:56:00.870Z,95790.12
2018-11-23T00:58:26.877Z,95791.50
2018-11-23T01:00:52.917Z,95790.71
2018-11-23T01:03:18.935Z,95793.53
2018-11-23T01:05:44.941Z,95792.09
2018-11-23T01:08:10.947Z,95791.75
2018-11-23T01:10:36.942Z,95793.35
2018-11-23T01:13:02.940Z,95793.35
2018-11-23T01:15:28.941Z,95795.72
2018-11-23T01:17:54.954Z,95797.47
2018-11-23T01:20:20.944Z,95799.59
2018-11-23T01:22:46.954Z,95798.29
2018-11-23T01:25:12.952Z,95799.44
2018-11-23T01:27:38.944Z,95795.47
2018-11-23T01:30:04.940Z,95797.25
2018-11-23T01:32:30.917Z,95802.34
2018-11-23T01:34:56.939Z,95802.11
2018-11-23T01:37:22.950Z,95798.06
2018-11-23T01:39:48.960Z,95798.84
2018-11-23T01:42:14.971Z,95789.41
2018-11-23T01:44:40.957Z,95790.38
2018-11-23T01:47:06.935Z,95791.75
2018-11-23T01:49:32.957Z,95799.36
2018-11-23T01:51:58.947Z,95796.03
2018-11-23T01:54:24.951Z,95792.72
2018-11-23T01:56:50.943Z,95799.44
2018-11-23T01:59:16.948Z,95807.83
2018-11-23T02:01:42.974Z,95800.97
2018-11-23T02:04:08.958Z,95801.11
2018-11-23T02:06:34.956Z,95797.58
2018-11-23T02:09:00.953Z,95797.81
2018-11-23T02:11:26.948Z,95802.34
2018-11-23T02:13:52.949Z,95794.09
2018-11-23T02:16:18.958Z,95801.22
2018-11-23T02:18:44.951Z,95804.52
2018-11-23T02:21:10.944Z,95801.78
2018-11-23T02:23:36.935Z,95801.86
2018-11-23T02:26:02.930Z,95797.66
2018-11-23T02:28:28.938Z,95802.48
2018-11-23T02:30:54.942Z,95805.64
2018-11-23T02:33:20.933Z,95805.09
2018-11-23T02:35:46.950Z,95804.27
2018-11-23T02:38:12.996Z,95810.02
2018-11-23T02:40:39.006Z,95805.90
2018-11-23T02:43:05.007Z,95807.42
2018-11-23T02:45:30.955Z,95814.22
2018-11-23T02:47:56.974Z,95813.48
2018-11-23T02:50:22.974Z,95814.48
2018-11-23T02:52:48.961Z,95808.66
2018-11-23T02:55:14.937Z,95815.52
2018-11-23T02:57:40.928Z,95817.59
2018-11-23T03:00:06.924Z,95821.57
2018-11-23T03:02:32.913Z,95817.53
2018-11-23T03:04:58.909Z,95819.97
2018-11-23T03:07:24.878Z,95822.06
2018-11-23T03:09:50.882Z,95820.76
2018-11-23T03:12:16.866Z,95824.47
2018-11-23T03:14:42.882Z,95823.50
2018-11-23T03:17:08.884Z,95826.03
2018-11-23T03:19:34.901Z,95829.34
2018-11-23T03:22:00.897Z,95829.19
2018-11-23T03:24:26.881Z,95831.34
2018-11-23T03:26:52.871Z,95834.50
2018-11-23T03:29:18.900Z,95835.88
2018-11-23T03:31:44.901Z,95838.87
2018-11-23T03:34:10.912Z,95837.66
2018-11-23T03:36:36.890Z,95832.16
2018-11-23T03:39:02.867Z,95835.09
2018-11-23T03:41:28.865Z,95831.34
2018-11-23T03:43:54.859Z,95832.16
2018-11-23T03:46:20.836Z,95838.87
2018-11-23T03:48:46.830Z,95831.75
2018-11-23T03:51:12.849Z,95835.47
2018-11-23T03:53:38.837Z,95831.34
2018-11-23T03:56:04.834Z,95835.72
2018-11-23T03:58:30.859Z,95836.69
2018-11-23T04:00:56.848Z,95834.91
2018-11-23T04:03:22.856Z,95830.38
2018-11-23T04:05:48.898Z,95833.53
2018-11-23T04:08:14.855Z,95836.12
2018-11-23T04:10:40.870Z,95835.09
2018-11-23T04:13:06.816Z,95834.02
2018-11-23T04:15:32.811Z,95835.64
2018-11-23T04:17:58.783Z,95837.02
2018-11-23T04:20:24.843Z,95837.58
2018-11-23T04:22:50.817Z,95844.30
2018-11-23T04:25:16.836Z,95843.63
2018-11-23T04:27:42.848Z,95843.07
2018-11-23T04:30:08.872Z,95839.13
2018-11-23T04:32:34.867Z,95837.35
2018-11-23T04:35:00.853Z,95832.08
2018-11-23T04:37:26.850Z,95840.33
2018-11-23T04:39:52.861Z,95839.13
2018-11-23T04:42:18.860Z,95837.58
2018-11-23T04:44:44.875Z,95837.35
2018-11-23T04:47:10.872Z,95839.77
2018-11-23T04:49:36.849Z,95845.41
2018-11-23T04:52:02.838Z,95843.33
2018-11-23T04:54:28.868Z,95844.30
2018-11-23T04:56:54.864Z,95844.45
2018-11-23T04:59:20.858Z,95851.72
2018-11-23T05:01:46.858Z,95857.96
2018-11-23T05:04:12.924Z,95856.59
2018-11-23T05:06:38.933Z,95860.52
2018-11-23T05:09:04.924Z,95863.86
2018-11-23T05:11:30.937Z,95859.89
2018-11-23T05:13:56.933Z,95853.43
2018-11-23T05:16:22.931Z,95858.52
2018-11-23T05:18:48.913Z,95858.11
2018-11-23T05:21:14.919Z,95859.48
2018-11-23T05:23:40.938Z,95864.98
2018-11-23T05:26:06.919Z,95867.91
2018-11-23T05:28:32.916Z,95869.92
2018-11-23T05:30:58.945Z,95870.14
2018-11-23T05:33:24.957Z,95865.80
2018-11-23T05:35:50.941Z,95874.85
2018-11-23T05:38:16.968Z,95871.36
2018-11-23T05:40:42.993Z,95878.05
2018-11-23T05:43:08.981Z,95881.20
2018-11-23T05:45:34.981Z,95881.72
2018-11-23T05:48:01.000Z,95887.59
2018-11-23T05:50:27.067Z,95887.03
2018-11-23T05:52:53.047Z,95888.16
2018-11-23T05:55:19.211Z,95887.27
2018-11-23T05:57:45.212Z,95890.97
2018-11-23T06:00:11.194Z,95898.66
2018-11-23T06:02:37.282Z,95904.56
2018-11-23T06:05:03.294Z,95907.54
2018-11-23T06:07:29.297Z,95905.94
2018-11-23T06:09:55.335Z,95911.77
2018-11-23T06:12:21.340Z,95912.58
2018-11-23T06:14:47.347Z,95913.30
2018-11-23T06:17:13.364Z,95912.88
2018-11-23T06:19:39.379Z,95912.10
2018-11-23T06:22:05.364Z,95921.39
2018-11-23T06:24:32.141Z,95924.95
2018-11-23T06:26:57.379Z,95919.05
2018-11-23T06:29:23.482Z,95925.84
2018-11-23T06:31:49.484Z,95937.95
2018-11-23T06:34:15.478Z,95946.12
2018-11-23T06:36:41.450Z,95945.08
2018-11-23T06:39:07.462Z,95952.66
2018-11-23T06:41:33.447Z,95955.98
2018-11-23T06:43:59.484Z,95955.58
2018-11-23T06:46:25.460Z,95963.83
2018-11-23T06:48:51.443Z,95965.76
2018-11-23T06:51:17.435Z,95967.54
2018-11-23T06:53:43.440Z,95967.95
2018-11-23T06:56:09.448Z,95967.20
2018-11-23T06:58:35.523Z,95964.79
2018-11-23T07:01:01.525Z,95970.36
2018-11-23T07:03:27.541Z,95969.55
2018-11-23T07:05:53.527Z,95970.70
2018-11-23T07:08:19.522Z,95966.09
2018-11-23T07:10:45.553Z,95969.73
2018-11-23T07:13:11.562Z,95963.83
2018-11-23T07:15:37.578Z,95965.36
2018-11-23T07:18:03.579Z,95962.75
2018-11-23T07:20:29.569Z,95969.30
2018-11-23T07:22:55.604Z,95974.80
2018-11-23T07:25:21.627Z,95981.02
2018-11-23T07:27:47.610Z,95992.83
2018-11-23T07:30:13.648Z,95990.83
2018-11-23T07:32:39.663Z,95989.05
2018-11-23T07:35:05.682Z,95994.13
2018-11-23T07:37:31.691Z,96002.20
2018-11-23T07:39:57.696Z,96007.46
2018-11-23T07:42:23.706Z,96008.91
2018-11-23T07:44:49.678Z,95995.98
2018-11-23T07:47:15.697Z,95995.66
2018-11-23T07:49:41.678Z,95967.92
2018-11-23T07:52:07.728Z,95993.47
2018-11-23T07:54:33.722Z,96001.48
2018-11-23T07:56:59.727Z,96001.80
2018-11-23T07:59:25.760Z,96000.42
2018-11-23T08:01:51.753Z,96002.84
2018-11-23T08:04:17.755Z,96006.47
2018-11-23T08:06:43.773Z,96009.30
2018-11-23T08:09:09.778Z,96012.53
2018-11-23T08:11:35.844Z,96023.12
2018-11-23T08:14:01.825Z,96016.91
2018-11-23T08:16:27.826Z,96021.04
2018-11-23T08:18:53.821Z,96026.53
2018-11-23T08:21:19.832Z,96026.95
2018-11-23T08:23:45.816Z,96029.10
2018-11-23T08:26:11.818Z,96028.70
2018-11-23T08:28:37.891Z,96026.61
2018-11-23T08:31:03.872Z,96025.80
2018-11-23T08:33:29.871Z,96025.39
2018-11-23T08:35:55.863Z,96028.70
2018-11-23T08:38:21.880Z,96027.17
2018-11-23T08:40:47.929Z,95976.09
2018-11-23T08:43:13.913Z,95975.84
2018-11-23T08:45:39.906Z,96024.20
2018-11-23T08:48:05.944Z,96026.95
2018-11-23T08:50:31.900Z,96026.95
2018-11-23T08:52:57.898Z,96026.92
2018-11-23T08:55:23.885Z,96029.26
2018-11-23T08:57:49.878Z,96022.23
2018-11-23T09:00:15.898Z,96023.20
2018-11-23T09:02:41.917Z,96020.39
2018-11-23T09:05:07.934Z,96016.97
2018-11-23T09:07:33.942Z,96019.56
2018-11-23T09:09:59.932Z,96021.83
2018-11-23T09:12:25.996Z,96016.33
2018-11-23T09:14:52.017Z,96014.63
2018-11-23T09:17:17.996Z,96017.22
2018-11-23T09:19:44.041Z,96016.66
2018-11-23T09:22:10.063Z,96010.91
2018-11-23T09:24:36.055Z,96009.80
2018-11-23T09:27:02.073Z,96006.08
2018-11-23T09:29:28.134Z,96001.95
2018-11-23T09:31:54.125Z,96001.70
2018-11-23T09:34:20.151Z,95999.61
2018-11-23T09:36:46.170Z,96000.58
2018-11-23T09:39:12.236Z,96003.33
2018-11-23T09:41:38.254Z,96005.27
2018-11-23T09:44:04.252Z,95999.77
2018-11-23T09:46:30.280Z,96004.30
2018-11-23T09:48:56.315Z,96000.91
2018-11-23T09:51:22.381Z,96001.63
2018-11-23T09:53:48.368Z,96006.16
2018-11-23T09:56:14.357Z,96005.75
2018-11-23T09:58:43.598Z,95999.99
2018-11-23T10:03:32.363Z,96002.59
2018-11-23T10:05:58.326Z,96001.38
2018-11-23T10:08:24.367Z,95999.59
2018-11-23T10:10:50.353Z,95990.70
2018-11-23T10:13:16.362Z,95998.06
2018-11-23T10:15:42.361Z,95993.05
2018-11-23T10:18:08.419Z,95993.13
2018-11-23T10:20:34.572Z,95996.92
2018-11-23T10:23:00.710Z,95991.42
2018-11-23T10:25:26.723Z,95993.46
2018-11-23T10:27:52.706Z,95989.97
2018-11-23T10:30:18.729Z,95987.48
2018-11-23T10:32:44.721Z,95988.04
2018-11-23T10:35:10.715Z,95987.23
2018-11-23T10:37:36.725Z,95992.54
2018-11-23T10:40:02.783Z,95989.01
2018-11-23T10:42:28.776Z,95985.59
2018-11-23T10:44:54.747Z,95991.76
2018-11-23T10:47:20.746Z,95987.78
2018-11-23T10:49:46.875Z,95986.26
2018-11-23T10:52:12.897Z,95986.59
2018-11-23T10:54:38.909Z,95988.11
2018-11-23T10:57:04.969Z,95990.30
2018-11-23T10:59:30.933Z,95993.05
2018-11-23T11:01:56.949Z,95985.29
2018-11-23T11:04:22.989Z,95982.54
2018-11-23T11:06:48.996Z,95980.20
2018-11-23T11:09:15.015Z,95980.83
2018-11-23T11:11:41.024Z,95976.64
2018-11-23T11:14:06.999Z,95975.08
2018-11-23T11:16:33.000Z,95969.02
2018-11-23T11:18:59.023Z,95974.30
2018-11-23T11:21:25.056Z,95965.87
2018-11-23T11:23:51.028Z,95967.50
2018-11-23T11:26:17.039Z,95961.08
2018-11-23T11:28:43.012Z,95957.70
2018-11-23T11:31:08.995Z,95966.66
2018-11-23T11:33:35.012Z,95961.16
2018-11-23T11:36:01.019Z,95960.92
2018-11-23T11:38:27.056Z,95956.95
2018-11-23T11:40:53.085Z,95962.16
2018-11-23T11:43:19.042Z,95965.94
2018-11-23T11:45:45.024Z,95959.22
2018-11-23T11:48:11.048Z,95964.83
2018-11-23T11:50:37.068Z,95959.41
2018-11-23T11:53:03.061Z,95956.47
2018-11-23T11:55:29.048Z,95956.95
2018-11-23T11:57:55.062Z,95958.03
2018-11-23T12:00:21.076Z,95955.44
2018-11-23T12:02:47.090Z,95955.20
2018-11-23T12:05:13.106Z,95951.72
2018-11-23T12:07:39.125Z,95953.02
2018-11-23T12:10:05.087Z,95953.65
2018-11-23T12:12:31.109Z,95956.80
2018-11-23T12:14:57.143Z,95954.20
2018-11-23T12:17:23.146Z,95951.16
2018-11-23T12:19:49.150Z,95957.88
2018-11-23T12:22:15.207Z,95963.05
2018-11-23T12:24:41.179Z,95971.84
2018-11-23T12:27:07.274Z,95966.66
2018-11-23T12:29:33.288Z,95962.53
2018-11-23T12:31:59.299Z,95965.53
2018-11-23T12:34:25.293Z,95968.80
2018-11-23T12:36:51.329Z,95958.25
2018-11-23T12:39:17.344Z,95963.60
2018-11-23T12:41:43.319Z,95962.00
2018-11-23T12:44:09.359Z,95963.75
2018-11-23T12:46:35.358Z,95968.61
2018-11-23T12:49:01.389Z,95964.83
2018-11-23T12:51:27.407Z,95973.62
2018-11-23T12:53:53.467Z,95962.89
2018-11-23T12:56:19.498Z,95965.38
2018-11-23T12:58:45.501Z,95967.50
2018-11-23T13:01:11.518Z,95966.27
2018-11-23T13:03:37.493Z,95960.22
2018-11-23T13:06:03.516Z,95954.98
2018-11-23T13:08:29.501Z,95958.69
2018-11-23T13:10:55.508Z,95961.19
2018-11-23T13:13:21.497Z,95963.52
2018-11-23T13:15:47.492Z,95965.64
2018-11-23T13:18:13.532Z,95966.53
2018-11-23T13:20:39.507Z,95957.95
2018-11-23T13:23:05.495Z,95955.87
2018-11-23T13:25:31.463Z,95955.53
2018-11-23T13:27:57.462Z,95956.50
2018-11-23T13:30:23.462Z,95954.31
2018-11-23T13:32:49.486Z,95956.84
2018-11-23T13:35:15.462Z,95951.89
2018-11-23T13:37:41.444Z,95949.48
2018-11-23T13:40:07.438Z,95948.33
2018-11-23T13:42:33.434Z,95943.42
2018-11-23T13:44:59.485Z,95935.73
2018-11-23T13:47:25.478Z,95941.31
2018-11-23T13:49:51.489Z,95943.50
2018-11-23T13:52:17.522Z,95940.59
2018-11-23T13:54:43.509Z,95934.69
2018-11-23T13:57:09.497Z,95931.77
2018-11-23T13:59:35.478Z,95942.20
2018-11-23T14:02:01.497Z,95935.25
2018-11-23T14:04:27.506Z,95939.52
2018-11-23T14:06:53.504Z,95944.23
2018-11-23T14:09:19.501Z,95944.80
2018-11-23T14:11:45.487Z,95943.09
2018-11-23T14:14:11.497Z,95945.43
2018-11-23T14:16:37.506Z,95950.92
2018-11-23T14:19:03.541Z,95953.67
2018-11-23T14:21:29.529Z,95954.98
2018-11-23T14:23:55.542Z,95958.54
2018-11-23T14:26:21.534Z,95954.90
2018-11-23T14:28:47.511Z,95954.98
2018-11-23T14:31:13.508Z,95954.64
2018-11-23T14:33:39.529Z,95951.74
2018-11-23T14:36:05.574Z,95947.06
2018-11-23T14:38:31.588Z,95943.34
2018-11-23T14:40:57.613Z,95947.77
2018-11-23T14:43:23.597Z,95955.86
2018-11-23T14:45:49.624Z,95950.52
2018-11-23T14:48:15.678Z,95956.61
2018-11-23T14:50:41.688Z,95955.31
2018-11-23T14:53:07.676Z,95961.77
2018-11-23T14:55:33.655Z,95958.95
2018-11-23T14:57:59.696Z,95960.73
2018-11-23T15:00:25.673Z,95959.25
2018-11-23T15:02:51.655Z,95966.38
2018-11-23T15:05:17.666Z,95962.25
2018-11-23T15:07:43.640Z,95968.95
2018-11-23T15:10:09.647Z,95970.98
2018-11-23T15:12:35.705Z,95976.48
2018-11-23T15:15:01.702Z,95974.70
2018-11-23T15:17:27.740Z,95980.20
2018-11-23T15:19:53.735Z,95983.27
2018-11-23T15:22:19.734Z,95989.18
2018-11-23T15:24:45.715Z,95984.87
2018-11-23T15:27:11.841Z,95980.04
2018-11-23T15:29:37.861Z,95983.34
2018-11-23T15:32:03.826Z,95982.64
2018-11-23T15:34:29.816Z,95995.80
2018-11-23T15:36:55.869Z,95995.56
2018-11-23T15:39:21.871Z,95990.22
2018-11-23T15:41:47.872Z,95992.81
2018-11-23T15:44:13.939Z,95996.05
2018-11-23T15:46:39.940Z,95999.20
2018-11-23T15:49:05.954Z,96000.58
2018-11-23T15:51:32.009Z,95993.15
2018-11-23T15:53:58.026Z,95990.47
2018-11-23T15:56:24.023Z,95990.47
2018-11-23T15:58:50.013Z,95984.97
2018-11-23T16:01:16.001Z,95993.63
2018-11-23T16:03:42.015Z,95997.75
2018-11-23T16:06:08.025Z,95999.53
2018-11-23T16:08:34.047Z,96002.20
2018-11-23T16:11:00.061Z,96009.45
2018-11-23T16:13:26.044Z,96017.23
2018-11-23T16:15:52.080Z,96012.44
2018-11-23T16:18:18.107Z,96016.42
2018-11-23T16:20:44.091Z,96013.08
2018-11-23T16:23:10.232Z,96018.51
2018-11-23T16:25:36.212Z,96019.06
2018-11-23T16:28:02.210Z,96015.51
2018-11-23T16:30:28.226Z,96019.05
2018-11-23T16:32:54.267Z,96026.55
2018-11-23T16:35:20.268Z,96019.68
2018-11-23T16:37:46.308Z,96018.64
2018-11-23T16:40:12.286Z,96020.28
2018-11-23T16:42:38.376Z,96021.39
2018-11-23T16:45:04.946Z,96024.07
2018-11-23T16:47:44.584Z,96024.95
2018-11-23T16:50:10.739Z,96028.94
2018-11-23T16:52:37.016Z,96024.63
2018-11-23T16:55:02.862Z,96036.92
2018-11-23T16:57:28.989Z,96033.77
2018-11-23T16:59:55.128Z,96028.08
2018-11-23T17:02:21.168Z,96035.55
2018-11-23T17:04:47.185Z,96033.50
2018-11-23T17:07:13.346Z,96027.12
2018-11-23T17:09:39.337Z,96020.50
2018-11-23T17:12:05.355Z,96023.41
2018-11-23T17:14:31.331Z,96021.14
2018-11-23T17:16:57.384Z,96026.23
2018-11-23T17:19:23.355Z,96021.39
2018-11-23T17:21:49.362Z,96021.24
2018-11-23T17:24:15.417Z,96019.69
2018-11-23T17:26:41.760Z,96021.47
2018-11-23T17:29:07.777Z,96021.13
2018-11-23T17:31:33.820Z,96016.30
2018-11-23T17:33:59.834Z,96022.77
2018-11-23T17:36:25.869Z,96024.33
2018-11-23T17:38:51.906Z,96022.28
2018-11-23T17:41:17.878Z,96026.97
2018-11-23T17:43:43.878Z,96026.89
2018-11-23T17:46:09.894Z,96026.33
2018-11-23T17:48:35.864Z,95979.18
2018-11-23T17:51:01.877Z,95978.13
2018-11-23T17:53:27.915Z,95984.34
2018-11-23T17:55:53.898Z,95985.01
2018-11-23T17:58:19.891Z,95983.23
2018-11-23T18:00:45.886Z,96033.50
2018-11-23T18:03:11.866Z,96034.95
2018-11-23T18:05:37.871Z,96040.30
2018-11-23T18:08:03.877Z,96041.30
2018-11-23T18:10:29.868Z,96048.17
2018-11-23T18:12:55.843Z,96047.03
2018-11-23T18:15:21.847Z,96044.20
2018-11-23T18:17:48.873Z,96045.17
2018-11-23T18:20:14.906Z,96042.19
2018-11-23T18:22:40.985Z,96043.48
2018-11-23T18:25:07.005Z,96047.20
2018-11-23T18:27:33.617Z,96045.57
2018-11-23T18:29:59.171Z,96039.28
2018-11-23T18:32:26.175Z,96039.03
2018-11-23T18:34:52.182Z,96044.38
2018-11-23T18:37:18.269Z,96043.08
2018-11-23T18:39:44.309Z,96041.38
2018-11-23T18:42:10.305Z,96043.23
2018-11-23T18:44:36.440Z,96041.60
2018-11-23T18:47:03.359Z,96047.59
2018-11-23T18:49:29.389Z,96047.36
2018-11-23T18:51:55.404Z,96040.23
2018-11-23T18:54:21.463Z,96044.98
2018-11-23T18:56:47.461Z,96039.86
2018-11-23T18:59:16.602Z,96042.83
2018-11-23T19:01:42.601Z,96046.95
2018-11-23T19:04:08.607Z,96040.64
2018-11-23T19:06:34.664Z,96038.16
2018-11-23T19:09:00.698Z,96039.34
2018-11-23T19:11:26.755Z,96039.05
2018-11-23T19:13:52.740Z,96038.37
2018-11-23T19:16:18.751Z,96037.89
2018-11-23T19:18:44.814Z,96035.37
2018-11-23T19:21:10.797Z,96039.67
2018-11-23T19:23:36.790Z,96047.52
2018-11-23T19:26:03.130Z,96045.98
2018-11-23T19:28:29.201Z,96041.64
2018-11-23T19:30:55.188Z,96045.17
2018-11-23T19:33:21.209Z,96044.06
2018-11-23T19:35:47.213Z,96050.94
2018-11-23T19:38:13.230Z,96054.55
2018-11-23T19:40:39.221Z,96050.05
2018-11-23T19:43:05.249Z,96051.98
2018-11-23T19:45:31.228Z,96054.06
2018-11-23T19:47:57.249Z,96053.98
2018-11-23T19:50:23.277Z,96052.13
2018-11-23T19:52:49.257Z,96059.08
2018-11-23T19:55:15.253Z,96066.44
2018-11-23T19:57:41.271Z,96061.61
2018-11-23T20:00:07.334Z,96061.61
2018-11-23T20:02:33.327Z,96057.86
2018-11-23T20:04:59.373Z,96055.52
2018-11-23T20:07:25.390Z,96054.95
2018-11-23T20:09:51.427Z,96062.47
2018-11-23T20:12:17.380Z,96057.15
2018-11-23T20:14:43.362Z,96061.98
2018-11-23T20:17:09.380Z,96056.18
2018-11-23T20:19:35.405Z,96055.03
2018-11-23T20:22:01.468Z,96055.92
2018-11-23T20:24:27.445Z,96053.99
2018-11-23T20:26:53.447Z,96057.94
2018-11-23T20:29:19.477Z,96061.20
2018-11-23T20:31:45.464Z,96056.33
2018-11-23T20:34:11.494Z,96056.48
2018-11-23T20:36:37.506Z,96063.28
2018-11-23T20:39:03.512Z,96056.33
2018-11-23T20:41:29.504Z,96056.00
2018-11-23T20:43:55.495Z,96055.37
2018-11-23T20:46:21.523Z,96060.46
2018-11-23T20:48:47.515Z,96063.92
2018-11-23T20:51:13.514Z,96064.18
2018-11-23T20:53:39.482Z,96066.67
2018-11-23T20:56:05.522Z,96064.10
2018-11-23T20:58:31.528Z,96067.08
2018-11-23T21:00:57.538Z,96067.41
2018-11-23T21:03:23.544Z,96063.36
2018-11-23T21:05:49.550Z,96065.70
2018-11-23T21:08:15.561Z,96067.16
2018-11-23T21:10:41.540Z,96064.89
2018-11-23T21:13:07.564Z,96063.21
2018-11-23T21:15:33.554Z,96067.90
2018-11-23T21:17:59.594Z,96065.12
2018-11-23T21:20:25.572Z,96065.53
2018-11-23T21:22:51.592Z,96063.66
2018-11-23T21:25:17.604Z,96070.06
2018-11-23T21:27:43.644Z,96062.80
2018-11-23T21:30:09.627Z,96066.93
2018-11-23T21:32:35.633Z,96064.00
2018-11-23T21:35:01.639Z,96061.02
2018-11-23T21:37:27.663Z,96065.55
2018-11-23T21:39:53.656Z,96065.96
2018-11-23T21:42:19.638Z,96060.61
2018-11-23T21:44:45.645Z,96065.89
2018-11-23T21:47:11.663Z,96055.27
2018-11-23T21:49:37.664Z,96059.80
2018-11-23T21:52:03.690Z,96053.73
2018-11-23T21:54:29.677Z,96052.59
2018-11-23T21:56:55.652Z,96056.82
2018-11-23T21:59:21.644Z,96063.66
2018-11-23T22:01:47.658Z,96070.47
2018-11-23T22:04:13.674Z,96065.12
2018-11-23T22:06:39.685Z,96061.98
2018-11-23T22:09:05.701Z,96065.38
2018-11-23T22:11:31.708Z,96063.74
2018-11-23T22:13:57.744Z,96058.24
2018-11-23T22:16:23.756Z,96064.00
2018-11-23T22:18:49.761Z,96061.06
2018-11-23T22:21:15.742Z,96058.09
2018-11-23T22:23:41.718Z,96055.90
2018-11-23T22:26:07.716Z,96053.81
2018-11-23T22:28:33.704Z,96055.56
2018-11-23T22:30:59.914Z,96053.73
2018-11-23T22:33:25.904Z,96056.64
2018-11-23T22:35:51.908Z,96052.51
2018-11-23T22:38:17.925Z,96052.28
2018-11-23T22:40:43.903Z,96047.94
2018-11-23T22:43:09.922Z,96041.88
2018-11-23T22:45:36.830Z,96048.34
2018-11-23T22:48:02.809Z,96043.73
2018-11-23T22:50:28.801Z,96042.50
2018-11-23T22:52:55.934Z,96042.02
2018-11-23T22:55:21.926Z,96046.73
2018-11-23T22:57:53.318Z,96044.84
2018-11-23T23:00:20.589Z,96046.77
2018-11-23T23:02:46.584Z,96048.70
2018-11-23T23:05:12.564Z,96049.45
2018-11-23T23:07:38.583Z,96049.37
2018-11-23T23:10:04.612Z,96052.45
2018-11-23T23:12:30.563Z,96049.84
2018-11-23T23:14:56.589Z,96048.09
2018-11-23T23:17:22.592Z,96052.78
2018-11-23T23:19:48.630Z,96052.14
2018-11-23T23:22:14.654Z,96051.88
2018-11-23T23:24:40.668Z,96049.88
2018-11-23T23:27:06.668Z,96051.17
2018-11-23T23:29:32.689Z,96053.52
2018-11-23T23:31:58.685Z,96046.79
2018-11-23T23:34:24.684Z,96056.00
2018-11-23T23:36:50.655Z,96055.77
2018-11-23T23:39:16.655Z,96062.50
2018-11-23T23:41:42.643Z,96063.20
2018-11-23T23:44:08.650Z,96056.11
2018-11-23T23:46:34.662Z,96060.78
2018-11-23T23:49:00.663Z,96065.65
2018-11-23T23:51:26.663Z,96064.27
2018-11-23T23:53:52.679Z,96061.93
2018-11-23T23:56:18.692Z,96062.41
2018-11-23T23:58:44.699Z,96071.06
